sensor_id;sensor_type;location;lat;lon;timestamp;pressure;altitude;pressure_sealevel;temperature;humidity
45941;BME280;31858;46.008;8.978;2022-12-07T00:07:22;94166.59;;;2.10;100.00
45941;BME280;31858;46.008;8.978;2022-12-07T00:17:25;94158.50;;;2.03;100.00
45941;BME280;31858;46.008;8.978;2022-12-07T00:27:27;94154.38;;;1.81;100.00
45941;BME280;31858;46.008;8.978;2022-12-07T00:37:30;94140.13;;;1.70;100.00
45941;BME280;31858;46.008;8.978;2022-12-07T00:47:32;94130.06;;;1.72;100.00
45941;BME280;31858;46.008;8.978;2022-12-07T00:57:35;94121.56;;;1.87;100.00
45941;BME280;31858;46.008;8.978;2022-12-07T01:07:36;94126.81;;;1.87;100.00
45941;BME280;31858;46.008;8.978;2022-12-07T01:17:39;94125.97;;;1.95;100.00
45941;BME280;31858;46.008;8.978;2022-12-07T01:27:41;94122.56;;;1.95;100.00
45941;BME280;31858;46.008;8.978;2022-12-07T01:37:44;94124.25;;;1.67;100.00
45941;BME280;31858;46.008;8.978;2022-12-07T01:47:47;94116.69;;;1.65;100.00
45941;BME280;31858;46.008;8.978;2022-12-07T01:57:52;94111.47;;;1.77;100.00
45941;BME280;31858;46.008;8.978;2022-12-07T02:07:56;94106.22;;;1.77;100.00
45941;BME280;31858;46.008;8.978;2022-12-07T02:18:05;94102.28;;;1.83;100.00
45941;BME280;31858;46.008;8.978;2022-12-07T02:28:13;94092.44;;;1.80;100.00
45941;BME280;31858;46.008;8.978;2022-12-07T02:38:26;94090.00;;;1.63;100.00
45941;BME280;31858;46.008;8.978;2022-12-07T02:48:31;94075.78;;;1.64;100.00
45941;BME280;31858;46.008;8.978;2022-12-07T02:58:46;94084.09;;;1.66;100.00
45941;BME280;31858;46.008;8.978;2022-12-07T03:08:57;94066.97;;;1.48;100.00
45941;BME280;31858;46.008;8.978;2022-12-07T03:19:07;94075.53;;;1.57;100.00
45941;BME280;31858;46.008;8.978;2022-12-07T03:29:17;94064.50;;;1.63;100.00
45941;BME280;31858;46.008;8.978;2022-12-07T03:39:25;94056.19;;;1.61;100.00
45941;BME280;31858;46.008;8.978;2022-12-07T03:49:32;94049.25;;;1.45;100.00
45941;BME280;31858;46.008;8.978;2022-12-07T03:59:40;94050.50;;;1.59;100.00
45941;BME280;31858;46.008;8.978;2022-12-07T04:09:43;94037.69;;;1.70;100.00
45941;BME280;31858;46.008;8.978;2022-12-07T04:19:46;94019.53;;;1.65;100.00
45941;BME280;31858;46.008;8.978;2022-12-07T04:29:47;94016.56;;;1.54;100.00
45941;BME280;31858;46.008;8.978;2022-12-07T04:39:50;94018.41;;;1.54;100.00
45941;BME280;31858;46.008;8.978;2022-12-07T04:49:52;94018.88;;;1.56;100.00
45941;BME280;31858;46.008;8.978;2022-12-07T04:59:55;94018.59;;;1.37;100.00
45941;BME280;31858;46.008;8.978;2022-12-07T05:09:57;94020.75;;;1.10;100.00
45941;BME280;31858;46.008;8.978;2022-12-07T05:19:59;94017.88;;;1.03;100.00
45941;BME280;31858;46.008;8.978;2022-12-07T05:30:01;94018.97;;;1.02;100.00
45941;BME280;31858;46.008;8.978;2022-12-07T05:40:05;94013.78;;;1.14;100.00
45941;BME280;31858;46.008;8.978;2022-12-07T05:50:07;94017.03;;;1.11;100.00
45941;BME280;31858;46.008;8.978;2022-12-07T06:00:12;94023.00;;;1.00;100.00
45941;BME280;31858;46.008;8.978;2022-12-07T06:10:13;94022.53;;;1.30;100.00
45941;BME280;31858;46.008;8.978;2022-12-07T06:20:17;94023.63;;;1.17;100.00
45941;BME280;31858;46.008;8.978;2022-12-07T06:30:18;94032.69;;;0.87;100.00
45941;BME280;31858;46.008;8.978;2022-12-07T06:40:21;94030.28;;;1.15;100.00
45941;BME280;31858;46.008;8.978;2022-12-07T06:50:23;94036.94;;;1.12;100.00
45941;BME280;31858;46.008;8.978;2022-12-07T07:00:26;94028.47;;;1.27;100.00
45941;BME280;31858;46.008;8.978;2022-12-07T07:10:27;94026.44;;;1.12;100.00
45941;BME280;31858;46.008;8.978;2022-12-07T07:20:30;94050.97;;;0.95;100.00
45941;BME280;31858;46.008;8.978;2022-12-07T07:30:32;94048.28;;;1.04;100.00
45941;BME280;31858;46.008;8.978;2022-12-07T07:40:35;94062.00;;;1.22;100.00
45941;BME280;31858;46.008;8.978;2022-12-07T07:50:36;94046.16;;;1.30;100.00
45941;BME280;31858;46.008;8.978;2022-12-07T08:00:39;94063.53;;;1.23;100.00
45941;BME280;31858;46.008;8.978;2022-12-07T08:10:41;94058.78;;;1.04;100.00
45941;BME280;31858;46.008;8.978;2022-12-07T08:20:44;94061.13;;;1.18;100.00
45941;BME280;31858;46.008;8.978;2022-12-07T08:30:45;94066.63;;;1.25;100.00
45941;BME280;31858;46.008;8.978;2022-12-07T08:40:54;94083.13;;;1.25;100.00
45941;BME280;31858;46.008;8.978;2022-12-07T08:50:57;94088.78;;;1.15;100.00
45941;BME280;31858;46.008;8.978;2022-12-07T09:01:00;94088.69;;;1.69;100.00
45941;BME280;31858;46.008;8.978;2022-12-07T09:11:02;94090.28;;;1.49;100.00
45941;BME280;31858;46.008;8.978;2022-12-07T09:21:05;94088.28;;;1.79;100.00
45941;BME280;31858;46.008;8.978;2022-12-07T09:31:07;94079.50;;;1.75;100.00
45941;BME280;31858;46.008;8.978;2022-12-07T09:41:10;94078.00;;;1.86;100.00
45941;BME280;31858;46.008;8.978;2022-12-07T09:51:15;94078.66;;;1.95;100.00
45941;BME280;31858;46.008;8.978;2022-12-07T10:01:20;94068.16;;;2.08;100.00
45941;BME280;31858;46.008;8.978;2022-12-07T10:11:22;94068.38;;;2.27;100.00
45941;BME280;31858;46.008;8.978;2022-12-07T10:21:26;94059.94;;;2.46;100.00
45941;BME280;31858;46.008;8.978;2022-12-07T10:31:28;94042.88;;;2.68;100.00
45941;BME280;31858;46.008;8.978;2022-12-07T10:41:31;94039.66;;;3.14;100.00
45941;BME280;31858;46.008;8.978;2022-12-07T10:51:39;94036.13;;;3.22;100.00
45941;BME280;31858;46.008;8.978;2022-12-07T11:01:50;94024.03;;;3.49;100.00
45941;BME280;31858;46.008;8.978;2022-12-07T11:12:02;94023.28;;;3.80;100.00
45941;BME280;31858;46.008;8.978;2022-12-07T11:22:13;94006.78;;;3.83;100.00
45941;BME280;31858;46.008;8.978;2022-12-07T11:32:25;93996.47;;;3.94;100.00
45941;BME280;31858;46.008;8.978;2022-12-07T11:42:39;93995.69;;;4.09;100.00
45941;BME280;31858;46.008;8.978;2022-12-07T11:52:45;93988.88;;;4.43;100.00
45941;BME280;31858;46.008;8.978;2022-12-07T12:02:55;93989.34;;;4.65;100.00
45941;BME280;31858;46.008;8.978;2022-12-07T12:13:09;93981.56;;;4.72;100.00
45941;BME280;31858;46.008;8.978;2022-12-07T12:23:19;93970.72;;;4.96;100.00
45941;BME280;31858;46.008;8.978;2022-12-07T12:33:26;93971.13;;;5.17;100.00
45941;BME280;31858;46.008;8.978;2022-12-07T12:43:51;93968.00;;;5.35;100.00
45941;BME280;31858;46.008;8.978;2022-12-07T12:54:03;93957.25;;;5.47;100.00
45941;BME280;31858;46.008;8.978;2022-12-07T13:04:21;93951.97;;;5.70;100.00
45941;BME280;31858;46.008;8.978;2022-12-07T13:25:05;93931.28;;;5.98;100.00
45941;BME280;31858;46.008;8.978;2022-12-07T13:35:29;93922.88;;;6.19;100.00
45941;BME280;31858;46.008;8.978;2022-12-07T13:45:33;93906.31;;;6.22;100.00
45941;BME280;31858;46.008;8.978;2022-12-07T13:55:50;93904.00;;;6.20;100.00
45941;BME280;31858;46.008;8.978;2022-12-07T14:06:15;93901.09;;;6.29;87.38
45941;BME280;31858;46.008;8.978;2022-12-07T14:16:23;93910.34;;;6.42;79.86
45941;BME280;31858;46.008;8.978;2022-12-07T14:26:27;93914.78;;;6.35;78.83
45941;BME280;31858;46.008;8.978;2022-12-07T14:36:28;93925.00;;;6.36;80.68
45941;BME280;31858;46.008;8.978;2022-12-07T14:46:31;93921.91;;;6.31;81.13
45941;BME280;31858;46.008;8.978;2022-12-07T14:56:33;93930.22;;;6.29;82.29
45941;BME280;31858;46.008;8.978;2022-12-07T15:06:36;93930.00;;;6.15;84.36
45941;BME280;31858;46.008;8.978;2022-12-07T15:16:39;93923.41;;;6.02;84.09
45941;BME280;31858;46.008;8.978;2022-12-07T15:26:43;93932.22;;;5.86;87.74
45941;BME280;31858;46.008;8.978;2022-12-07T15:36:45;93927.31;;;5.62;89.11
45941;BME280;31858;46.008;8.978;2022-12-07T15:46:48;93939.94;;;5.49;94.20
45941;BME280;31858;46.008;8.978;2022-12-07T15:56:49;93945.59;;;5.48;92.49
45941;BME280;31858;46.008;8.978;2022-12-07T16:06:52;93942.09;;;4.98;96.94
45941;BME280;31858;46.008;8.978;2022-12-07T16:16:54;93947.88;;;4.65;99.67
45941;BME280;31858;46.008;8.978;2022-12-07T16:26:57;93963.34;;;4.47;100.00
45941;BME280;31858;46.008;8.978;2022-12-07T16:36:58;93965.13;;;4.24;100.00
45941;BME280;31858;46.008;8.978;2022-12-07T16:47:01;93962.09;;;4.06;100.00
45941;BME280;31858;46.008;8.978;2022-12-07T16:57:03;93953.25;;;3.99;100.00
45941;BME280;31858;46.008;8.978;2022-12-07T17:07:06;93964.66;;;4.03;100.00
45941;BME280;31858;46.008;8.978;2022-12-07T17:17:08;93963.50;;;3.84;100.00
45941;BME280;31858;46.008;8.978;2022-12-07T17:27:11;93966.41;;;3.64;100.00
45941;BME280;31858;46.008;8.978;2022-12-07T17:37:12;93959.28;;;3.64;100.00
45941;BME280;31858;46.008;8.978;2022-12-07T17:47:15;93963.09;;;3.51;100.00
45941;BME280;31858;46.008;8.978;2022-12-07T17:57:18;93961.75;;;3.41;100.00
45941;BME280;31858;46.008;8.978;2022-12-07T18:07:21;93960.38;;;3.32;100.00
45941;BME280;31858;46.008;8.978;2022-12-07T18:17:22;93968.78;;;3.21;100.00
45941;BME280;31858;46.008;8.978;2022-12-07T18:27:25;93968.41;;;3.07;100.00
45941;BME280;31858;46.008;8.978;2022-12-07T18:37:27;93976.06;;;3.12;100.00
45941;BME280;31858;46.008;8.978;2022-12-07T18:47:30;93982.09;;;3.13;100.00
45941;BME280;31858;46.008;8.978;2022-12-07T18:57:32;93991.00;;;3.08;100.00
45941;BME280;31858;46.008;8.978;2022-12-07T19:07:35;93995.00;;;2.90;100.00
45941;BME280;31858;46.008;8.978;2022-12-07T19:17:37;93991.13;;;3.00;100.00
45941;BME280;31858;46.008;8.978;2022-12-07T19:27:40;93984.50;;;2.90;100.00
45941;BME280;31858;46.008;8.978;2022-12-07T19:37:42;93984.00;;;2.72;100.00
45941;BME280;31858;46.008;8.978;2022-12-07T19:47:44;93990.66;;;2.82;100.00
45941;BME280;31858;46.008;8.978;2022-12-07T19:57:46;94000.31;;;2.78;100.00
45941;BME280;31858;46.008;8.978;2022-12-07T20:07:49;93992.47;;;2.66;100.00
45941;BME280;31858;46.008;8.978;2022-12-07T20:17:51;93998.47;;;2.50;100.00
45941;BME280;31858;46.008;8.978;2022-12-07T20:27:53;94003.47;;;2.55;100.00
45941;BME280;31858;46.008;8.978;2022-12-07T20:37:55;94004.91;;;2.53;100.00
45941;BME280;31858;46.008;8.978;2022-12-07T20:47:58;94002.72;;;2.55;100.00
45941;BME280;31858;46.008;8.978;2022-12-07T20:57:59;94014.34;;;2.54;100.00
45941;BME280;31858;46.008;8.978;2022-12-07T21:08:03;94019.09;;;2.36;100.00
45941;BME280;31858;46.008;8.978;2022-12-07T21:18:04;94026.44;;;2.31;100.00
45941;BME280;31858;46.008;8.978;2022-12-07T21:28:07;94024.88;;;2.42;100.00
45941;BME280;31858;46.008;8.978;2022-12-07T21:38:09;94026.19;;;2.36;100.00
45941;BME280;31858;46.008;8.978;2022-12-07T21:48:12;94024.78;;;2.38;100.00
45941;BME280;31858;46.008;8.978;2022-12-07T21:58:13;94031.81;;;2.22;100.00
45941;BME280;31858;46.008;8.978;2022-12-07T22:08:16;94029.19;;;2.10;100.00
45941;BME280;31858;46.008;8.978;2022-12-07T22:18:18;94032.91;;;2.09;100.00
45941;BME280;31858;46.008;8.978;2022-12-07T22:28:21;94027.00;;;2.12;100.00
45941;BME280;31858;46.008;8.978;2022-12-07T22:38:23;94009.81;;;2.02;100.00
45941;BME280;31858;46.008;8.978;2022-12-07T22:48:26;94017.34;;;2.04;100.00
45941;BME280;31858;46.008;8.978;2022-12-07T22:58:27;94013.84;;;2.00;100.00
45941;BME280;31858;46.008;8.978;2022-12-07T23:08:30;94016.16;;;1.77;100.00
45941;BME280;31858;46.008;8.978;2022-12-07T23:18:32;94012.31;;;1.74;100.00
45941;BME280;31858;46.008;8.978;2022-12-07T23:28:35;94013.09;;;1.75;100.00
45941;BME280;31858;46.008;8.978;2022-12-07T23:38:39;94010.09;;;1.52;100.00
45941;BME280;31858;46.008;8.978;2022-12-07T23:48:44;94014.16;;;1.61;100.00
45941;BME280;31858;46.008;8.978;2022-12-07T23:58:46;93995.69;;;1.70;100.00
